Time;durP1;ratioP1;P1;durP2;ratioP2;P2;SDS_P1;SDS_P2;PMS_P1;PMS_P2;Temp;Humidity;BMP_temperature;BMP_pressure;BME280_temperature;BME280_humidity;BME280_pressure;Samples;Min_cycle;Max_cycle;Signal;HPM_P1;HPM_P2
2020/12/02 00:01:13;;;;;;;26.00;17.93;;;2.00;99.90;;;;;;4943614;29;20194;-79
2020/12/02 00:03:46;;;;;;;27.13;18.47;;;2.00;99.90;;;;;;4943403;29;20257;-77
2020/12/02 00:06:13;;;;;;;28.60;19.77;;;1.90;99.90;;;;;;4941015;29;20261;-77
2020/12/02 00:08:46;;;;;;;27.87;19.10;;;1.90;99.90;;;;;;4941888;29;20177;-78
2020/12/02 00:11:13;;;;;;;25.73;18.67;;;1.90;99.90;;;;;;4939952;29;20170;-77
2020/12/02 00:13:57;;;;;;;27.00;19.13;;;1.90;99.90;;;;;;4942948;29;20174;-78
2020/12/02 00:16:27;;;;;;;30.93;19.40;;;1.90;99.90;;;;;;4942088;29;20174;-78
2020/12/02 00:18:54;;;;;;;30.13;20.33;;;1.90;99.90;;;;;;4942248;29;20194;-78
2020/12/02 00:21:21;;;;;;;32.90;19.67;;;1.90;99.90;;;;;;4945110;29;20233;-78
2020/12/02 00:23:53;;;;;;;30.83;19.77;;;1.90;99.90;;;;;;4941643;29;20242;-79
2020/12/02 00:26:20;;;;;;;26.63;18.87;;;2.00;99.90;;;;;;4942274;29;20207;-78
2020/12/02 00:28:49;;;;;;;27.53;19.33;;;2.00;99.90;;;;;;4943692;29;20586;-78
2020/12/02 00:31:16;;;;;;;29.33;20.27;;;2.00;99.90;;;;;;4943284;29;20753;-78
2020/12/02 00:33:42;;;;;;;32.57;20.73;;;2.00;99.90;;;;;;4943809;29;20546;-77
2020/12/02 00:36:14;;;;;;;31.87;20.47;;;2.00;99.90;;;;;;4943125;29;20186;-77
2020/12/02 00:38:39;;;;;;;33.43;21.10;;;2.10;99.90;;;;;;4942257;29;20656;-79
2020/12/02 00:41:06;;;;;;;32.77;20.23;;;2.00;99.90;;;;;;4943748;29;20205;-78
2020/12/02 00:43:35;;;;;;;38.97;21.97;;;2.00;99.90;;;;;;4944294;29;20290;-78
2020/12/02 00:46:02;;;;;;;36.00;22.30;;;2.00;99.90;;;;;;4942710;29;20206;-78
2020/12/02 00:48:31;;;;;;;34.57;21.27;;;2.00;99.90;;;;;;4943072;29;20181;-77
2020/12/02 00:50:58;;;;;;;35.70;21.33;;;2.10;99.90;;;;;;4941751;29;20202;-78
2020/12/02 00:53:27;;;;;;;34.43;20.83;;;2.10;99.90;;;;;;4945093;29;20178;-78
2020/12/02 00:55:59;;;;;;;30.53;18.73;;;2.10;99.90;;;;;;4941225;29;20182;-77
2020/12/02 00:58:46;;;;;;;29.77;19.87;;;2.20;99.90;;;;;;4929896;29;20189;-78
2020/12/02 01:01:16;;;;;;;28.90;19.17;;;2.10;99.90;;;;;;4944329;29;20186;-78
2020/12/02 01:03:41;;;;;;;29.10;18.90;;;2.10;99.90;;;;;;4943759;29;20197;-78
2020/12/02 01:06:10;;;;;;;30.43;19.30;;;2.10;99.90;;;;;;4941276;29;20210;-78
2020/12/02 01:08:39;;;;;;;27.37;18.97;;;2.10;99.90;;;;;;4942877;29;20198;-78
2020/12/02 01:11:25;;;;;;;29.97;20.23;;;2.20;99.90;;;;;;4942420;29;20207;-77
2020/12/02 01:14:04;;;;;;;30.03;19.37;;;2.20;99.90;;;;;;4944131;29;20185;-77
2020/12/02 01:16:39;;;;;;;28.13;19.27;;;2.20;99.90;;;;;;4942970;29;20270;-77
2020/12/02 01:19:11;;;;;;;27.33;18.73;;;2.20;99.90;;;;;;4943942;29;20194;-79
2020/12/02 01:21:46;;;;;;;25.40;17.60;;;2.20;99.90;;;;;;4942212;29;20197;-78
2020/12/02 01:24:17;;;;;;;27.43;18.37;;;2.20;99.90;;;;;;4942194;29;20178;-78
2020/12/02 01:26:48;;;;;;;27.57;18.37;;;2.20;99.90;;;;;;4943578;29;20300;-78
2020/12/02 01:29:19;;;;;;;25.40;17.80;;;2.10;99.90;;;;;;4943240;29;20613;-77
2020/12/02 01:31:48;;;;;;;40.80;21.90;;;2.10;99.90;;;;;;4940444;29;20238;-79
2020/12/02 01:34:14;;;;;;;47.67;24.90;;;2.10;99.90;;;;;;4941618;29;20209;-78
2020/12/02 01:37:09;;;;;;;49.10;24.33;;;2.00;99.90;;;;;;4941919;29;20183;-78
2020/12/02 01:39:53;;;;;;;92.97;37.13;;;2.00;99.90;;;;;;4941610;29;20222;-77
2020/12/02 01:42:18;;;;;;;28.73;19.17;;;1.90;99.90;;;;;;4941409;29;20526;-78
2020/12/02 01:44:44;;;;;;;32.43;19.87;;;1.80;99.90;;;;;;4942800;29;20185;-78
2020/12/02 01:47:31;;;;;;;30.73;19.77;;;1.80;99.90;;;;;;4941504;29;20586;-78
2020/12/02 01:50:15;;;;;;;28.70;19.33;;;1.80;99.90;;;;;;4943921;29;20201;-78
2020/12/02 01:53:03;;;;;;;30.03;19.33;;;1.90;99.90;;;;;;4941025;29;20199;-77
2020/12/02 01:56:04;;;;;;;27.87;18.80;;;1.90;99.90;;;;;;4939176;29;20649;-77
2020/12/02 01:58:58;;;;;;;26.47;18.23;;;2.00;99.90;;;;;;4941130;29;20664;-78
2020/12/02 02:01:52;;;;;;;23.97;17.63;;;2.00;99.90;;;;;;4943367;29;20182;-79
2020/12/02 02:04:22;;;;;;;25.37;17.83;;;2.10;99.90;;;;;;4942880;29;20553;-78
2020/12/02 02:06:50;;;;;;;24.50;16.77;;;2.10;99.90;;;;;;4941135;29;20229;-77
2020/12/02 02:09:19;;;;;;;22.60;16.50;;;2.10;99.90;;;;;;4940618;29;20690;-78
2020/12/02 02:11:55;;;;;;;24.73;17.03;;;2.00;99.90;;;;;;4941808;29;20185;-78
2020/12/02 02:14:49;;;;;;;24.87;17.50;;;2.10;99.90;;;;;;4941073;29;20178;-78
2020/12/02 02:17:21;;;;;;;24.80;17.20;;;2.10;99.90;;;;;;4941774;29;20217;-78
2020/12/02 02:19:50;;;;;;;20.97;16.10;;;2.10;99.90;;;;;;4941232;29;20209;-78
2020/12/02 02:22:16;;;;;;;22.57;16.77;;;2.10;99.90;;;;;;4940702;29;20182;-77
2020/12/02 02:24:44;;;;;;;21.80;16.50;;;2.10;99.90;;;;;;4940300;29;20245;-78
2020/12/02 02:27:13;;;;;;;24.23;17.17;;;2.10;99.90;;;;;;4941269;29;20209;-78
2020/12/02 02:29:56;;;;;;;22.63;16.30;;;2.10;99.90;;;;;;4940550;29;20305;-77
2020/12/02 02:32:26;;;;;;;24.80;17.57;;;2.10;99.90;;;;;;4940886;29;20221;-78
2020/12/02 02:34:54;;;;;;;22.40;16.80;;;2.10;99.90;;;;;;4942743;29;20185;-78
2020/12/02 02:37:23;;;;;;;20.63;16.23;;;2.10;99.90;;;;;;4941315;29;20180;-78
2020/12/02 02:39:48;;;;;;;21.20;16.27;;;2.10;99.90;;;;;;4940047;29;20198;-78
2020/12/02 02:42:45;;;;;;;20.27;16.33;;;2.20;99.90;;;;;;4941820;29;20675;-77
2020/12/02 02:45:20;;;;;;;22.93;15.87;;;2.20;99.90;;;;;;4935847;29;20194;-78
2020/12/02 02:47:49;;;;;;;20.17;16.00;;;2.10;99.90;;;;;;4926998;29;20595;-78
2020/12/02 02:50:17;;;;;;;21.50;15.13;;;2.20;99.90;;;;;;4943829;28;20217;-78
2020/12/02 02:52:44;;;;;;;22.03;16.40;;;2.20;99.90;;;;;;4940925;29;20291;-80
2020/12/02 02:55:23;;;;;;;22.97;15.67;;;2.30;99.90;;;;;;4940658;29;20193;-77
2020/12/02 02:57:50;;;;;;;22.10;16.63;;;2.20;99.90;;;;;;4941161;29;20197;-77
2020/12/02 03:00:21;;;;;;;21.83;16.07;;;2.20;99.90;;;;;;4941976;29;20681;-78
2020/12/02 03:02:54;;;;;;;24.30;16.53;;;2.20;99.90;;;;;;4939849;29;20269;-77
2020/12/02 03:05:20;;;;;;;19.80;15.40;;;2.20;99.90;;;;;;4940762;29;20181;-77
2020/12/02 03:08:00;;;;;;;19.27;15.13;;;2.20;99.90;;;;;;4941932;29;20206;-78
2020/12/02 03:10:30;;;;;;;19.37;14.83;;;2.30;99.90;;;;;;4940228;29;20241;-78
2020/12/02 03:13:01;;;;;;;20.83;15.63;;;2.30;99.90;;;;;;4942371;29;20189;-78
2020/12/02 03:15:27;;;;;;;22.43;16.23;;;2.30;99.90;;;;;;4939021;29;20653;-78
2020/12/02 03:17:54;;;;;;;22.70;16.00;;;2.20;99.90;;;;;;4938282;29;20585;-77
2020/12/02 03:20:28;;;;;;;24.37;16.27;;;2.20;99.90;;;;;;4939835;29;20214;-78
2020/12/02 03:23:00;;;;;;;21.40;15.50;;;2.20;99.90;;;;;;4942022;29;20201;-77
2020/12/02 03:25:31;;;;;;;26.47;16.60;;;2.20;99.90;;;;;;4942887;29;20196;-78
2020/12/02 03:27:57;;;;;;;22.30;15.37;;;2.10;99.90;;;;;;4939896;29;20253;-78
2020/12/02 03:30:23;;;;;;;24.67;15.97;;;2.10;99.90;;;;;;4944694;29;20223;-78
2020/12/02 03:32:49;;;;;;;24.63;15.47;;;2.10;99.90;;;;;;4945665;29;20184;-78
2020/12/02 03:35:16;;;;;;;26.30;16.63;;;2.10;99.90;;;;;;4945040;29;20185;-77
2020/12/02 03:37:42;;;;;;;23.53;15.47;;;2.10;99.90;;;;;;4944368;29;20873;-78
2020/12/02 03:40:09;;;;;;;33.73;17.63;;;2.10;99.90;;;;;;4944750;29;20204;-78
2020/12/02 03:42:36;;;;;;;29.57;17.23;;;2.10;99.90;;;;;;4944411;29;20551;-78
2020/12/02 03:45:05;;;;;;;29.30;16.73;;;2.10;99.90;;;;;;4945355;29;20179;-76
2020/12/02 03:47:31;;;;;;;27.70;17.37;;;2.10;99.90;;;;;;4944570;29;20632;-78
2020/12/02 03:49:57;;;;;;;29.77;17.03;;;2.20;99.90;;;;;;4942456;29;20199;-77
2020/12/02 03:52:23;;;;;;;33.40;19.73;;;2.20;99.90;;;;;;4943915;29;20265;-78
2020/12/02 03:54:51;;;;;;;45.67;22.50;;;2.20;99.90;;;;;;4944688;29;20209;-78
2020/12/02 03:57:27;;;;;;;39.17;19.40;;;2.20;99.90;;;;;;4944047;29;20193;-78
2020/12/02 04:00:09;;;;;;;37.63;19.40;;;2.20;99.90;;;;;;4944115;29;20202;-77
2020/12/02 04:02:46;;;;;;;;;;;;;;;;;;;;;
2020/12/02 04:05:12;;;;;;;37.50;19.23;;;2.20;99.90;;;;;;4945453;29;20264;-78
2020/12/02 04:07:41;;;;;;;33.97;18.63;;;2.20;99.90;;;;;;4944004;29;20201;-79
2020/12/02 04:10:07;;;;;;;37.70;19.87;;;2.30;99.90;;;;;;4943165;29;20202;-78
2020/12/02 04:12:33;;;;;;;33.70;18.10;;;2.20;99.90;;;;;;4943446;29;20190;-78
2020/12/02 04:14:59;;;;;;;29.07;15.63;;;2.10;99.90;;;;;;4942203;29;20200;-77
2020/12/02 04:17:24;;;;;;;51.17;24.67;;;2.10;99.90;;;;;;4943157;29;20178;-79
2020/12/02 04:19:50;;;;;;;27.47;15.43;;;2.10;99.90;;;;;;4944768;29;20256;-78
2020/12/02 04:22:16;;;;;;;31.50;15.63;;;2.10;99.90;;;;;;4942104;29;20604;-77
2020/12/02 04:24:45;;;;;;;26.90;14.30;;;2.10;99.90;;;;;;4939891;29;20193;-77
2020/12/02 04:27:11;;;;;;;32.77;17.90;;;2.10;99.90;;;;;;4944810;29;20276;-78
2020/12/02 04:29:37;;;;;;;29.13;16.87;;;2.10;99.90;;;;;;4941175;29;20213;-78
2020/12/02 04:32:07;;;;;;;27.80;15.50;;;2.10;99.90;;;;;;4944313;29;20253;-78
2020/12/02 04:34:33;;;;;;;28.40;15.20;;;2.00;99.90;;;;;;4943663;29;20652;-78
2020/12/02 04:37:03;;;;;;;29.60;16.17;;;2.00;99.90;;;;;;4942836;29;20176;-78
2020/12/02 04:39:28;;;;;;;27.93;15.13;;;2.20;99.90;;;;;;4944475;29;20205;-78
2020/12/02 04:41:54;;;;;;;26.83;15.03;;;2.10;99.90;;;;;;4943703;29;20258;-78
2020/12/02 04:44:21;;;;;;;27.57;14.30;;;2.10;99.90;;;;;;4943095;29;20205;-78
2020/12/02 04:46:51;;;;;;;25.47;14.00;;;2.10;99.90;;;;;;4943861;29;20201;-77
2020/12/02 04:49:28;;;;;;;26.60;14.50;;;2.10;99.90;;;;;;4944570;29;20253;-78
2020/12/02 04:52:00;;;;;;;25.87;14.93;;;2.20;99.90;;;;;;4944803;29;20202;-78
2020/12/02 04:54:26;;;;;;;26.70;15.43;;;2.20;99.90;;;;;;4942857;29;20166;-74
2020/12/02 04:56:52;;;;;;;26.97;15.80;;;2.10;99.90;;;;;;4939973;29;20272;-78
2020/12/02 04:59:18;;;;;;;25.97;15.53;;;2.00;99.90;;;;;;4943906;29;20209;-79
2020/12/02 05:01:54;;;;;;;27.43;15.27;;;2.20;99.90;;;;;;4934280;29;20548;-77
2020/12/02 05:04:25;;;;;;;24.37;15.53;;;2.10;99.90;;;;;;4928213;29;20209;-77
2020/12/02 05:07:16;;;;;;;22.53;14.43;;;2.10;99.90;;;;;;4937693;29;20197;-77
2020/12/02 05:09:58;;;;;;;24.23;15.13;;;2.10;99.90;;;;;;4944358;28;20192;-77
2020/12/02 05:12:31;;;;;;;22.20;13.97;;;2.10;99.90;;;;;;4944226;29;20174;-77
2020/12/02 05:15:29;;;;;;;23.63;14.40;;;2.10;99.90;;;;;;4940320;29;20209;-78
2020/12/02 05:18:34;;;;;;;26.67;15.57;;;2.10;99.90;;;;;;4944859;29;20208;-79
2020/12/02 05:21:29;;;;;;;25.77;15.33;;;2.10;99.90;;;;;;4931183;29;20198;-77
2020/12/02 05:24:25;;;;;;;24.90;15.87;;;2.10;99.90;;;;;;4936474;29;20715;-77
2020/12/02 05:26:50;;;;;;;22.80;16.33;;;2.10;99.90;;;;;;4934706;29;20205;-77
2020/12/02 05:29:33;;;;;;;16.33;13.03;;;2.10;99.90;;;;;;4930160;29;20214;-77
2020/12/02 05:32:12;;;;;;;19.20;14.23;;;2.00;99.90;;;;;;4940570;29;20174;-77
2020/12/02 05:34:38;;;;;;;18.83;13.73;;;2.00;99.90;;;;;;4938710;29;20180;-77
2020/12/02 05:37:13;;;;;;;17.77;13.53;;;2.20;99.90;;;;;;4942611;29;20182;-78
2020/12/02 05:39:44;;;;;;;16.97;13.80;;;2.10;99.90;;;;;;4943687;29;20574;-78
2020/12/02 05:42:41;;;;;;;16.50;13.50;;;2.00;99.90;;;;;;4927439;29;20197;-78
2020/12/02 05:45:14;;;;;;;15.73;12.67;;;2.10;99.90;;;;;;4943192;29;20210;-77
2020/12/02 05:47:41;;;;;;;14.70;13.20;;;2.10;99.90;;;;;;4942433;29;20212;-78
2020/12/02 05:50:12;;;;;;;13.33;11.93;;;2.10;99.90;;;;;;4955180;29;20205;-80
2020/12/02 05:52:41;;;;;;;13.43;12.07;;;2.10;99.90;;;;;;4953956;28;20186;-80
2020/12/02 05:55:14;;;;;;;14.60;13.03;;;2.10;99.90;;;;;;4952109;29;20188;-80
2020/12/02 05:57:52;;;;;;;15.67;14.03;;;2.10;99.90;;;;;;4955221;29;20202;-80
2020/12/02 06:00:27;;;;;;;16.23;14.63;;;2.10;99.90;;;;;;4952642;29;20201;-78
2020/12/02 06:02:54;;;;;;;17.10;14.73;;;2.20;99.90;;;;;;4952667;29;20771;-80
2020/12/02 06:05:20;;;;;;;16.47;14.77;;;2.00;99.90;;;;;;4951512;29;20184;-79
2020/12/02 06:07:59;;;;;;;16.90;14.60;;;2.00;99.90;;;;;;4951799;29;20213;-80
2020/12/02 06:10:43;;;;;;;16.27;14.47;;;2.00;99.90;;;;;;4951016;29;20276;-78
2020/12/02 06:13:37;;;;;;;19.37;15.53;;;2.00;99.90;;;;;;4949406;29;20174;-79
2020/12/02 06:16:03;;;;;;;20.50;16.40;;;2.00;99.90;;;;;;4940598;29;20221;-79
2020/12/02 06:18:32;;;;;;;20.63;17.30;;;2.00;99.90;;;;;;4948449;29;20529;-80
2020/12/02 06:20:58;;;;;;;20.77;17.00;;;2.00;99.90;;;;;;4949437;29;20220;-79
2020/12/02 06:23:47;;;;;;;18.87;16.00;;;2.00;99.90;;;;;;4948898;29;20186;-80
2020/12/02 06:26:13;;;;;;;20.93;16.57;;;2.00;99.90;;;;;;4947492;29;20237;-79
2020/12/02 06:28:39;;;;;;;20.23;17.13;;;2.00;99.90;;;;;;4949268;29;20189;-79
2020/12/02 06:31:18;;;;;;;21.47;17.37;;;2.00;99.90;;;;;;4947721;29;20212;-79
2020/12/02 06:33:46;;;;;;;21.90;16.67;;;2.00;99.90;;;;;;4948667;29;20205;-79
2020/12/02 06:36:28;;;;;;;17.97;15.67;;;1.90;99.90;;;;;;4947903;29;20173;-78
2020/12/02 06:39:10;;;;;;;18.37;16.17;;;2.00;99.90;;;;;;4949737;29;20185;-78
2020/12/02 06:41:43;;;;;;;17.60;15.07;;;2.00;99.90;;;;;;4949249;29;20302;-79
2020/12/02 06:44:31;;;;;;;19.30;15.27;;;2.00;99.90;;;;;;4950580;29;20178;-79
2020/12/02 06:47:20;;;;;;;19.07;16.53;;;2.00;99.90;;;;;;4948740;29;20205;-79
2020/12/02 06:49:49;;;;;;;17.60;14.47;;;2.00;99.90;;;;;;4949232;29;20595;-79
2020/12/02 06:52:31;;;;;;;15.63;13.73;;;2.00;99.90;;;;;;4949646;29;20175;-79
2020/12/02 06:55:08;;;;;;;17.60;15.33;;;2.00;99.90;;;;;;4947744;29;20178;-79
2020/12/02 06:57:34;;;;;;;17.07;14.43;;;2.00;99.90;;;;;;4948516;29;20181;-80
2020/12/02 07:00:04;;;;;;;15.27;13.50;;;2.00;99.90;;;;;;4948737;29;20210;-79
2020/12/02 07:02:55;;;;;;;18.33;15.53;;;2.00;99.90;;;;;;4949091;29;20272;-79
2020/12/02 07:05:24;;;;;;;17.17;14.53;;;2.00;99.90;;;;;;4949004;29;20641;-80
2020/12/02 07:08:00;;;;;;;16.60;14.50;;;2.00;99.90;;;;;;4947507;29;20205;-78
2020/12/02 07:10:26;;;;;;;17.67;14.60;;;2.10;99.90;;;;;;4945631;29;20189;-78
2020/12/02 07:12:54;;;;;;;18.60;15.63;;;2.00;99.90;;;;;;4941944;29;20549;-77
2020/12/02 07:15:22;;;;;;;21.43;17.47;;;2.10;99.90;;;;;;4944660;29;20174;-79
2020/12/02 07:17:48;;;;;;;19.23;16.57;;;2.10;99.90;;;;;;4944730;29;20321;-77
2020/12/02 07:20:16;;;;;;;21.50;16.67;;;2.00;99.90;;;;;;4945066;29;20250;-78
2020/12/02 07:23:02;;;;;;;16.63;14.03;;;2.00;99.90;;;;;;4944672;29;20553;-78
2020/12/02 07:25:28;;;;;;;20.07;15.77;;;2.00;99.90;;;;;;4949724;29;20225;-79
2020/12/02 07:27:54;;;;;;;20.33;15.40;;;1.90;99.90;;;;;;4947352;29;20206;-80
2020/12/02 07:30:37;;;;;;;21.33;16.10;;;1.90;99.90;;;;;;4947435;29;20224;-79
2020/12/02 07:33:24;;;;;;;18.43;14.73;;;2.00;99.90;;;;;;4942445;29;20178;-77
2020/12/02 07:36:06;;;;;;;17.47;14.10;;;1.90;99.90;;;;;;4942344;29;20192;-77
2020/12/02 07:38:31;;;;;;;17.77;14.50;;;2.00;99.90;;;;;;4943736;29;20213;-77
2020/12/02 07:41:26;;;;;;;27.50;18.40;;;1.90;99.90;;;;;;4944598;29;20208;-79
2020/12/02 07:43:53;;;;;;;17.60;14.20;;;1.90;99.90;;;;;;4944366;29;20236;-79
2020/12/02 07:46:21;;;;;;;20.23;14.90;;;2.00;99.90;;;;;;4943734;29;20281;-79
2020/12/02 07:48:58;;;;;;;21.53;16.20;;;2.00;99.90;;;;;;4947203;29;20182;-78
2020/12/02 07:51:30;;;;;;;19.70;13.70;;;1.90;99.90;;;;;;4951548;29;20170;-79
2020/12/02 07:54:01;;;;;;;17.37;13.63;;;2.00;99.90;;;;;;4949019;29;20265;-78
2020/12/02 07:56:36;;;;;;;21.47;14.93;;;2.10;99.90;;;;;;4946136;29;20193;-79
2020/12/02 07:59:23;;;;;;;17.23;13.63;;;2.10;99.90;;;;;;4950905;29;20670;-79
2020/12/02 08:01:58;;;;;;;17.70;13.03;;;2.10;99.90;;;;;;4947301;29;20172;-80
2020/12/02 08:04:49;;;;;;;15.37;12.77;;;2.10;99.90;;;;;;4945305;29;20660;-78
2020/12/02 08:07:18;;;;;;;13.23;11.90;;;2.10;99.90;;;;;;4943430;29;20202;-79
2020/12/02 08:09:48;;;;;;;15.53;12.97;;;2.10;99.90;;;;;;4943534;29;20197;-78
2020/12/02 08:12:25;;;;;;;15.47;12.80;;;2.10;99.90;;;;;;4941970;29;20178;-78
2020/12/02 08:15:10;;;;;;;15.33;12.67;;;2.00;99.90;;;;;;4946069;29;20233;-80
2020/12/02 08:17:39;;;;;;;17.30;13.27;;;2.00;99.90;;;;;;4949815;29;20229;-79
2020/12/02 08:20:33;;;;;;;15.30;12.90;;;2.10;99.90;;;;;;4950496;29;20209;-79
2020/12/02 08:23:08;;;;;;;15.20;12.53;;;2.00;99.90;;;;;;4950203;29;20724;-78
2020/12/02 08:26:03;;;;;;;14.83;12.23;;;2.00;99.90;;;;;;4948337;29;20185;-78
2020/12/02 08:28:38;;;;;;;18.07;13.77;;;2.10;99.90;;;;;;4947244;29;20685;-78
2020/12/02 08:31:20;;;;;;;13.67;12.03;;;2.10;99.90;;;;;;4947031;29;20205;-77
2020/12/02 08:34:20;;;;;;;16.67;13.00;;;2.10;99.90;;;;;;4942847;29;20224;-77
2020/12/02 08:36:49;;;;;;;15.47;12.50;;;2.10;99.90;;;;;;4947168;29;20213;-78
2020/12/02 08:39:31;;;;;;;13.97;12.03;;;2.10;99.90;;;;;;4946777;29;20738;-79
2020/12/02 08:41:58;;;;;;;17.53;12.63;;;2.20;99.90;;;;;;4946066;29;20186;-79
2020/12/02 08:44:23;;;;;;;12.40;11.10;;;2.10;99.90;;;;;;4947010;29;20273;-78
2020/12/02 08:46:52;;;;;;;16.53;12.97;;;2.10;99.90;;;;;;4946536;29;20280;-77
2020/12/02 08:49:22;;;;;;;14.87;11.90;;;2.10;99.90;;;;;;4945171;29;20672;-78
2020/12/02 08:51:48;;;;;;;15.80;12.53;;;2.10;99.90;;;;;;4946997;29;20233;-78
2020/12/02 08:54:15;;;;;;;16.20;14.03;;;2.10;99.90;;;;;;4944800;29;20186;-78
2020/12/02 08:56:41;;;;;;;16.77;12.63;;;2.10;99.90;;;;;;4945416;29;20183;-78
2020/12/02 08:59:11;;;;;;;15.80;12.40;;;2.10;99.90;;;;;;4946787;29;20677;-78
2020/12/02 09:01:37;;;;;;;15.80;12.37;;;2.10;99.90;;;;;;4947951;29;20221;-80
2020/12/02 09:04:03;;;;;;;18.67;13.20;;;2.10;99.90;;;;;;4947450;29;20691;-78
2020/12/02 09:06:29;;;;;;;17.83;13.07;;;2.20;99.90;;;;;;4945819;29;20324;-79
2020/12/02 09:08:55;;;;;;;17.97;13.10;;;2.10;99.90;;;;;;4944416;29;20189;-77
2020/12/02 09:11:24;;;;;;;17.67;13.20;;;2.10;99.90;;;;;;4947637;29;20642;-79
2020/12/02 09:13:50;;;;;;;21.30;13.90;;;2.20;99.90;;;;;;4945181;29;20181;-78
2020/12/02 09:16:40;;;;;;;18.87;13.13;;;2.10;99.90;;;;;;4943280;29;20547;-78
2020/12/02 09:19:12;;;;;;;19.07;13.10;;;2.10;99.90;;;;;;4943767;29;20661;-77
2020/12/02 09:21:40;;;;;;;19.57;12.90;;;2.10;99.90;;;;;;4946093;29;20688;-79
2020/12/02 09:24:07;;;;;;;18.90;12.87;;;2.20;99.90;;;;;;4946611;29;20211;-78
2020/12/02 09:26:34;;;;;;;17.17;12.07;;;2.10;99.90;;;;;;4944766;29;20212;-77
2020/12/02 09:29:11;;;;;;;;;;;;;;;;;;;;;
2020/12/02 09:31:37;;;;;;;20.77;12.20;;;2.00;99.90;;;;;;4947093;29;20272;-78
2020/12/02 09:34:05;;;;;;;20.17;12.73;;;2.00;99.90;;;;;;4944093;29;20202;-78
2020/12/02 09:36:31;;;;;;;17.00;11.80;;;2.10;99.90;;;;;;4945527;29;20181;-78
2020/12/02 09:38:57;;;;;;;19.73;12.63;;;2.00;99.90;;;;;;4943736;29;20191;-77
2020/12/02 09:41:44;;;;;;;16.87;12.20;;;2.10;99.90;;;;;;4945154;29;20314;-78
2020/12/02 09:44:36;;;;;;;20.43;12.60;;;2.10;99.90;;;;;;4946139;29;20546;-79
2020/12/02 09:47:13;;;;;;;19.00;11.73;;;2.20;99.90;;;;;;4948938;29;20202;-78
2020/12/02 09:49:40;;;;;;;18.20;11.73;;;2.20;99.90;;;;;;4946805;29;20268;-79
2020/12/02 09:52:12;;;;;;;18.43;12.13;;;2.20;99.90;;;;;;4948122;29;20588;-79
2020/12/02 09:54:41;;;;;;;19.83;12.57;;;2.20;99.90;;;;;;4947214;29;20544;-79
2020/12/02 09:57:23;;;;;;;21.13;12.67;;;2.30;99.90;;;;;;4947998;29;20189;-79
2020/12/02 09:59:49;;;;;;;19.57;12.40;;;2.30;99.90;;;;;;4944767;29;20284;-77
2020/12/02 10:02:37;;;;;;;21.17;12.70;;;2.30;99.90;;;;;;4947808;29;20708;-78
2020/12/02 10:05:25;;;;;;;17.73;11.23;;;2.30;99.90;;;;;;4944290;29;20185;-78
2020/12/02 10:08:09;;;;;;;17.93;12.53;;;2.30;99.90;;;;;;4945214;29;20205;-78
2020/12/02 10:10:39;;;;;;;16.67;11.13;;;2.40;99.90;;;;;;4945597;29;20217;-78
2020/12/02 10:13:11;;;;;;;16.57;10.93;;;2.50;99.90;;;;;;4946024;29;20209;-78
2020/12/02 10:16:03;;;;;;;16.67;11.43;;;2.40;99.90;;;;;;4932787;29;20197;-79
2020/12/02 10:18:51;;;;;;;16.93;11.77;;;2.50;99.90;;;;;;4945870;29;20186;-78
2020/12/02 10:21:17;;;;;;;14.40;10.67;;;2.50;99.90;;;;;;4945786;29;20295;-79
2020/12/02 10:24:19;;;;;;;18.10;11.20;;;2.50;99.90;;;;;;4945772;29;20174;-78
2020/12/02 10:27:11;;;;;;;17.90;11.57;;;2.40;99.90;;;;;;4944514;29;20213;-79
2020/12/02 10:30:17;;;;;;;16.37;11.30;;;2.40;99.90;;;;;;4945975;29;20273;-78
2020/12/02 10:32:58;;;;;;;17.23;11.57;;;2.40;99.90;;;;;;4933815;29;20170;-77
2020/12/02 10:35:25;;;;;;;18.07;12.20;;;2.40;99.90;;;;;;4945258;29;20197;-79
2020/12/02 10:37:57;;;;;;;20.50;12.63;;;2.50;99.90;;;;;;4944496;29;20210;-78
2020/12/02 10:40:24;;;;;;;17.70;12.27;;;2.50;99.90;;;;;;4946184;29;20212;-79
2020/12/02 10:42:56;;;;;;;29.73;15.37;;;2.40;99.90;;;;;;4947118;29;20182;-79
2020/12/02 10:45:23;;;;;;;18.97;13.03;;;2.40;99.90;;;;;;4947401;29;20177;-79
2020/12/02 10:47:49;;;;;;;21.20;13.27;;;2.40;99.90;;;;;;4947563;29;20201;-79
2020/12/02 10:50:22;;;;;;;28.30;15.47;;;2.40;99.90;;;;;;4947422;29;20565;-78
2020/12/02 10:52:50;;;;;;;23.83;14.20;;;2.40;99.90;;;;;;4944456;29;20189;-79
2020/12/02 10:55:23;;;;;;;28.70;15.23;;;2.40;99.90;;;;;;4947655;29;20174;-79
2020/12/02 10:58:25;;;;;;;39.67;18.33;;;2.30;99.90;;;;;;4948329;29;20178;-79
2020/12/02 11:00:54;;;;;;;23.87;13.77;;;2.30;99.90;;;;;;4948307;29;20232;-78
2020/12/02 11:03:24;;;;;;;28.00;16.43;;;2.30;99.90;;;;;;4947549;29;20173;-79
2020/12/02 11:06:02;;;;;;;24.53;13.77;;;2.30;99.90;;;;;;4947411;29;20182;-79
2020/12/02 11:08:37;;;;;;;24.93;14.07;;;2.20;99.90;;;;;;4933478;29;20178;-79
2020/12/02 11:11:32;;;;;;;28.63;15.13;;;2.20;99.90;;;;;;4947406;29;20204;-79
2020/12/02 11:14:32;;;;;;;25.07;13.03;;;2.20;99.90;;;;;;4947466;29;20174;-79
2020/12/02 11:17:06;;;;;;;23.57;13.77;;;2.30;99.90;;;;;;4945083;29;20197;-80
2020/12/02 11:19:37;;;;;;;25.67;13.70;;;2.30;99.90;;;;;;4947661;29;20229;-79
2020/12/02 11:22:24;;;;;;;27.80;16.53;;;2.40;99.90;;;;;;4944816;29;20185;-79
2020/12/02 11:25:01;;;;;;;24.20;13.23;;;2.40;99.90;;;;;;4948543;29;20197;-80
2020/12/02 11:27:27;;;;;;;24.43;12.70;;;2.50;99.90;;;;;;4937714;29;20302;-81
2020/12/02 11:29:53;;;;;;;21.67;12.97;;;2.50;99.90;;;;;;4973438;23;20233;-80
2020/12/02 11:32:49;;;;;;;23.73;13.43;;;2.40;99.90;;;;;;4970657;28;20659;-77
2020/12/02 11:35:21;;;;;;;22.90;12.80;;;2.40;99.90;;;;;;4977638;28;20181;-78
2020/12/02 11:37:58;;;;;;;21.07;12.00;;;2.50;99.90;;;;;;4972318;28;20591;-79
2020/12/02 11:40:53;;;;;;;16.83;10.10;;;2.50;99.90;;;;;;4972436;28;20229;-79
2020/12/02 11:43:41;;;;;;;18.33;11.50;;;2.50;99.90;;;;;;4946741;28;20181;-78
2020/12/02 11:46:13;;;;;;;18.87;10.93;;;2.50;99.90;;;;;;4958557;28;20179;-79
2020/12/02 11:48:44;;;;;;;23.90;12.37;;;2.50;99.90;;;;;;4957391;28;20174;-79
2020/12/02 11:51:48;;;;;;;20.43;12.20;;;2.50;99.90;;;;;;4962614;28;20192;-78
2020/12/02 11:54:14;;;;;;;19.13;11.73;;;2.50;99.90;;;;;;4958266;28;20641;-78
2020/12/02 11:56:45;;;;;;;20.23;11.30;;;2.60;99.90;;;;;;4961255;28;20189;-78
2020/12/02 11:59:32;;;;;;;17.10;10.53;;;2.50;99.90;;;;;;4961036;28;20184;-78
2020/12/02 12:02:23;;;;;;;16.23;10.03;;;2.50;99.90;;;;;;4971052;28;20178;-79
2020/12/02 12:05:14;;;;;;;22.17;15.50;;;2.50;99.90;;;;;;4962833;28;20181;-78
2020/12/02 12:08:26;;;;;;;23.43;16.00;;;2.40;99.90;;;;;;4961274;28;20201;-78
2020/12/02 12:10:58;;;;;;;17.57;10.57;;;2.30;99.90;;;;;;4959644;28;20201;-78
2020/12/02 12:13:39;;;;;;;17.87;11.20;;;2.40;99.90;;;;;;4948427;28;20177;-78
2020/12/02 12:16:16;;;;;;;19.77;12.23;;;2.30;99.90;;;;;;4962076;28;20201;-78
2020/12/02 12:19:08;;;;;;;15.80;9.83;;;2.30;99.90;;;;;;4956029;28;20177;-79
2020/12/02 12:21:57;;;;;;;15.50;9.73;;;2.30;99.90;;;;;;4959122;28;20194;-79
2020/12/02 12:24:23;;;;;;;17.33;10.67;;;2.30;99.90;;;;;;4961664;28;20614;-78
2020/12/02 12:26:53;;;;;;;16.33;9.87;;;2.40;99.90;;;;;;4961368;28;20197;-78
2020/12/02 12:29:19;;;;;;;15.13;10.57;;;2.30;99.90;;;;;;4960453;28;20178;-79
2020/12/02 12:32:03;;;;;;;18.73;11.07;;;2.30;99.90;;;;;;4961643;28;20220;-78
2020/12/02 12:34:35;;;;;;;16.27;10.23;;;2.30;99.90;;;;;;4961336;28;20265;-79
2020/12/02 12:37:08;;;;;;;17.50;11.27;;;2.30;99.90;;;;;;4961207;28;20260;-79
2020/12/02 12:39:46;;;;;;;17.47;11.73;;;2.30;99.90;;;;;;4959085;28;20264;-77
2020/12/02 12:42:13;;;;;;;16.27;10.80;;;2.30;99.90;;;;;;4958696;28;20251;-78
2020/12/02 12:44:41;;;;;;;26.90;10.67;;;2.30;99.90;;;;;;4960241;28;20260;-79
2020/12/02 12:47:27;;;;;;;16.63;10.27;;;2.20;99.90;;;;;;4961724;28;20193;-79
2020/12/02 12:49:55;;;;;;;16.33;11.40;;;2.20;99.90;;;;;;4961710;28;20201;-79
2020/12/02 12:52:28;;;;;;;14.83;10.07;;;2.20;99.90;;;;;;4961255;28;20189;-79
2020/12/02 12:54:54;;;;;;;15.93;9.83;;;2.10;99.90;;;;;;4960891;28;20185;-79
2020/12/02 12:57:23;;;;;;;19.43;11.30;;;2.10;99.90;;;;;;4960237;28;20731;-79
2020/12/02 12:59:53;;;;;;;16.23;10.57;;;2.10;99.90;;;;;;4962655;28;20185;-78
2020/12/02 13:02:26;;;;;;;18.10;10.83;;;2.10;99.90;;;;;;4960501;28;20177;-78
2020/12/02 13:04:52;;;;;;;17.93;12.10;;;2.10;99.90;;;;;;4962804;28;20674;-77
2020/12/02 13:07:37;;;;;;;25.23;15.30;;;2.20;99.90;;;;;;4960921;28;20196;-78
2020/12/02 13:10:26;;;;;;;18.70;9.60;;;2.20;99.90;;;;;;4960652;28;20206;-78
2020/12/02 13:13:00;;;;;;;17.17;11.10;;;2.20;99.90;;;;;;4962745;28;20182;-79
2020/12/02 13:15:41;;;;;;;18.37;11.83;;;2.20;99.90;;;;;;4960936;28;20203;-78